sensor_id;sensor_type;location;lat;lon;timestamp;P1;durP1;ratioP1;P2;durP2;ratioP2
66485;SDS011;53303;47.476;8.084;2023-02-10T00:01:04;10.00;;;4.93;;
66485;SDS011;53303;47.476;8.084;2023-02-10T00:03:31;9.82;;;4.85;;
66485;SDS011;53303;47.476;8.084;2023-02-10T00:06:00;9.43;;;5.18;;
66485;SDS011;53303;47.476;8.084;2023-02-10T00:08:29;11.07;;;4.75;;
66485;SDS011;53303;47.476;8.084;2023-02-10T00:11:04;10.18;;;5.13;;
66485;SDS011;53303;47.476;8.084;2023-02-10T00:13:38;8.77;;;4.40;;
66485;SDS011;53303;47.476;8.084;2023-02-10T00:16:10;8.75;;;5.07;;
66485;SDS011;53303;47.476;8.084;2023-02-10T00:18:37;8.77;;;5.30;;
66485;SDS011;53303;47.476;8.084;2023-02-10T00:21:07;9.02;;;4.88;;
66485;SDS011;53303;47.476;8.084;2023-02-10T00:23:45;11.20;;;5.43;;
66485;SDS011;53303;47.476;8.084;2023-02-10T00:26:11;9.60;;;5.60;;
66485;SDS011;53303;47.476;8.084;2023-02-10T00:28:39;9.68;;;4.70;;
66485;SDS011;53303;47.476;8.084;2023-02-10T00:31:08;9.52;;;5.13;;
66485;SDS011;53303;47.476;8.084;2023-02-10T00:33:36;9.75;;;5.03;;
66485;SDS011;53303;47.476;8.084;2023-02-10T00:36:05;8.20;;;4.35;;
66485;SDS011;53303;47.476;8.084;2023-02-10T00:38:34;11.32;;;4.65;;
66485;SDS011;53303;47.476;8.084;2023-02-10T00:41:08;11.40;;;4.95;;
66485;SDS011;53303;47.476;8.084;2023-02-10T00:43:35;9.93;;;4.30;;
66485;SDS011;53303;47.476;8.084;2023-02-10T00:46:01;8.35;;;4.88;;
66485;SDS011;53303;47.476;8.084;2023-02-10T00:48:29;8.50;;;4.90;;
66485;SDS011;53303;47.476;8.084;2023-02-10T00:51:00;8.57;;;5.13;;
66485;SDS011;53303;47.476;8.084;2023-02-10T00:53:28;9.93;;;5.10;;
66485;SDS011;53303;47.476;8.084;2023-02-10T00:55:53;11.38;;;4.78;;
66485;SDS011;53303;47.476;8.084;2023-02-10T00:58:19;9.82;;;5.22;;
66485;SDS011;53303;47.476;8.084;2023-02-10T01:00:44;8.73;;;4.93;;
66485;SDS011;53303;47.476;8.084;2023-02-10T01:03:12;9.45;;;5.35;;
66485;SDS011;53303;47.476;8.084;2023-02-10T01:05:40;8.73;;;4.90;;
66485;SDS011;53303;47.476;8.084;2023-02-10T01:08:06;9.80;;;5.15;;
66485;SDS011;53303;47.476;8.084;2023-02-10T01:10:32;10.57;;;5.35;;
66485;SDS011;53303;47.476;8.084;2023-02-10T01:12:59;7.63;;;4.82;;
66485;SDS011;53303;47.476;8.084;2023-02-10T01:15:26;11.43;;;5.65;;
66485;SDS011;53303;47.476;8.084;2023-02-10T01:17:54;9.50;;;4.90;;
66485;SDS011;53303;47.476;8.084;2023-02-10T01:20:19;10.20;;;4.38;;
66485;SDS011;53303;47.476;8.084;2023-02-10T01:22:45;9.30;;;4.63;;
66485;SDS011;53303;47.476;8.084;2023-02-10T01:25:10;10.23;;;5.28;;
66485;SDS011;53303;47.476;8.084;2023-02-10T01:27:35;11.30;;;4.60;;
66485;SDS011;53303;47.476;8.084;2023-02-10T01:30:01;10.20;;;5.40;;
66485;SDS011;53303;47.476;8.084;2023-02-10T01:32:29;8.57;;;4.35;;
66485;SDS011;53303;47.476;8.084;2023-02-10T01:34:55;8.98;;;4.72;;
66485;SDS011;53303;47.476;8.084;2023-02-10T01:37:23;10.18;;;5.30;;
66485;SDS011;53303;47.476;8.084;2023-02-10T01:39:48;10.85;;;4.93;;
66485;SDS011;53303;47.476;8.084;2023-02-10T01:42:18;8.30;;;5.18;;
66485;SDS011;53303;47.476;8.084;2023-02-10T01:47:09;9.77;;;5.13;;
66485;SDS011;53303;47.476;8.084;2023-02-10T01:49:39;8.73;;;4.82;;
66485;SDS011;53303;47.476;8.084;2023-02-10T01:52:11;10.15;;;4.97;;
66485;SDS011;53303;47.476;8.084;2023-02-10T01:57:14;8.25;;;5.20;;
66485;SDS011;53303;47.476;8.084;2023-02-10T01:59:40;8.38;;;5.10;;
66485;SDS011;53303;47.476;8.084;2023-02-10T02:02:09;9.57;;;5.28;;
66485;SDS011;53303;47.476;8.084;2023-02-10T02:04:38;10.20;;;5.00;;
66485;SDS011;53303;47.476;8.084;2023-02-10T02:07:08;9.23;;;5.22;;
66485;SDS011;53303;47.476;8.084;2023-02-10T02:09:33;10.63;;;4.90;;
66485;SDS011;53303;47.476;8.084;2023-02-10T02:14:55;9.30;;;5.15;;
66485;SDS011;53303;47.476;8.084;2023-02-10T02:17:32;7.85;;;4.57;;
66485;SDS011;53303;47.476;8.084;2023-02-10T02:36:56;7.75;;;4.65;;
66485;SDS011;53303;47.476;8.084;2023-02-10T02:39:26;7.72;;;4.88;;
66485;SDS011;53303;47.476;8.084;2023-02-10T02:44:39;7.15;;;4.47;;
66485;SDS011;53303;47.476;8.084;2023-02-10T02:49:56;8.27;;;5.13;;
66485;SDS011;53303;47.476;8.084;2023-02-10T02:55:14;8.10;;;4.72;;
66485;SDS011;53303;47.476;8.084;2023-02-10T02:58:10;9.23;;;5.30;;
66485;SDS011;53303;47.476;8.084;2023-02-10T03:00:44;7.82;;;4.45;;
66485;SDS011;53303;47.476;8.084;2023-02-10T03:03:12;7.88;;;4.80;;
66485;SDS011;53303;47.476;8.084;2023-02-10T03:05:41;8.95;;;4.80;;
66485;SDS011;53303;47.476;8.084;2023-02-10T03:08:06;10.07;;;5.05;;
66485;SDS011;53303;47.476;8.084;2023-02-10T03:10:34;8.45;;;4.90;;
66485;SDS011;53303;47.476;8.084;2023-02-10T03:13:01;8.88;;;4.55;;
66485;SDS011;53303;47.476;8.084;2023-02-10T03:15:27;9.27;;;5.10;;
66485;SDS011;53303;47.476;8.084;2023-02-10T03:17:55;8.88;;;5.40;;
66485;SDS011;53303;47.476;8.084;2023-02-10T03:20:21;10.27;;;5.53;;
66485;SDS011;53303;47.476;8.084;2023-02-10T03:22:51;8.88;;;5.32;;
66485;SDS011;53303;47.476;8.084;2023-02-10T03:25:16;9.32;;;4.80;;
66485;SDS011;53303;47.476;8.084;2023-02-10T03:27:42;10.23;;;5.40;;
66485;SDS011;53303;47.476;8.084;2023-02-10T03:30:12;9.02;;;4.75;;
66485;SDS011;53303;47.476;8.084;2023-02-10T03:32:40;8.93;;;5.30;;
66485;SDS011;53303;47.476;8.084;2023-02-10T03:35:10;8.57;;;4.85;;
66485;SDS011;53303;47.476;8.084;2023-02-10T03:37:38;9.15;;;4.95;;
66485;SDS011;53303;47.476;8.084;2023-02-10T03:40:03;8.55;;;4.82;;
66485;SDS011;53303;47.476;8.084;2023-02-10T03:42:29;7.75;;;5.00;;
66485;SDS011;53303;47.476;8.084;2023-02-10T03:44:57;7.97;;;4.68;;
66485;SDS011;53303;47.476;8.084;2023-02-10T03:47:22;7.35;;;4.75;;
66485;SDS011;53303;47.476;8.084;2023-02-10T03:49:48;8.32;;;5.60;;
66485;SDS011;53303;47.476;8.084;2023-02-10T03:52:18;8.52;;;4.38;;
66485;SDS011;53303;47.476;8.084;2023-02-10T03:54:44;10.43;;;4.85;;
66485;SDS011;53303;47.476;8.084;2023-02-10T03:57:12;8.50;;;5.32;;
66485;SDS011;53303;47.476;8.084;2023-02-10T03:59:43;10.27;;;5.40;;
66485;SDS011;53303;47.476;8.084;2023-02-10T04:02:09;8.30;;;5.57;;
66485;SDS011;53303;47.476;8.084;2023-02-10T04:04:36;8.65;;;4.53;;
66485;SDS011;53303;47.476;8.084;2023-02-10T04:07:02;9.02;;;4.78;;
66485;SDS011;53303;47.476;8.084;2023-02-10T04:09:33;7.78;;;4.75;;
66485;SDS011;53303;47.476;8.084;2023-02-10T04:11:59;8.52;;;4.70;;
66485;SDS011;53303;47.476;8.084;2023-02-10T04:14:25;8.27;;;4.57;;
66485;SDS011;53303;47.476;8.084;2023-02-10T04:16:51;7.53;;;5.03;;
66485;SDS011;53303;47.476;8.084;2023-02-10T04:19:16;8.77;;;5.10;;
66485;SDS011;53303;47.476;8.084;2023-02-10T04:21:44;8.00;;;4.80;;
66485;SDS011;53303;47.476;8.084;2023-02-10T04:24:13;9.13;;;5.50;;
66485;SDS011;53303;47.476;8.084;2023-02-10T04:26:41;7.38;;;4.78;;
66485;SDS011;53303;47.476;8.084;2023-02-10T04:29:07;9.82;;;4.80;;
66485;SDS011;53303;47.476;8.084;2023-02-10T04:31:32;8.85;;;5.30;;
66485;SDS011;53303;47.476;8.084;2023-02-10T04:33:57;8.52;;;4.80;;
66485;SDS011;53303;47.476;8.084;2023-02-10T04:36:23;9.32;;;5.88;;
66485;SDS011;53303;47.476;8.084;2023-02-10T04:38:48;7.32;;;5.10;;
66485;SDS011;53303;47.476;8.084;2023-02-10T04:41:14;7.82;;;4.85;;
66485;SDS011;53303;47.476;8.084;2023-02-10T04:43:44;8.98;;;5.07;;
66485;SDS011;53303;47.476;8.084;2023-02-10T04:46:10;9.13;;;5.45;;
66485;SDS011;53303;47.476;8.084;2023-02-10T04:48:35;9.38;;;5.75;;
66485;SDS011;53303;47.476;8.084;2023-02-10T04:51:06;8.77;;;5.40;;
66485;SDS011;53303;47.476;8.084;2023-02-10T04:53:33;9.38;;;5.60;;
66485;SDS011;53303;47.476;8.084;2023-02-10T04:55:58;8.85;;;5.32;;
66485;SDS011;53303;47.476;8.084;2023-02-10T04:58:29;8.95;;;5.70;;
66485;SDS011;53303;47.476;8.084;2023-02-10T05:00:55;10.55;;;5.05;;
66485;SDS011;53303;47.476;8.084;2023-02-10T05:03:24;8.40;;;5.60;;
66485;SDS011;53303;47.476;8.084;2023-02-10T05:05:53;13.38;;;6.13;;
66485;SDS011;53303;47.476;8.084;2023-02-10T05:08:23;13.55;;;7.32;;
66485;SDS011;53303;47.476;8.084;2023-02-10T05:10:56;13.40;;;7.07;;
66485;SDS011;53303;47.476;8.084;2023-02-10T05:13:21;10.77;;;6.72;;
66485;SDS011;53303;47.476;8.084;2023-02-10T05:15:46;10.85;;;5.70;;
66485;SDS011;53303;47.476;8.084;2023-02-10T05:18:12;10.15;;;5.63;;
66485;SDS011;53303;47.476;8.084;2023-02-10T05:20:37;13.50;;;6.13;;
66485;SDS011;53303;47.476;8.084;2023-02-10T05:23:03;10.57;;;5.93;;
66485;SDS011;53303;47.476;8.084;2023-02-10T05:25:28;11.02;;;5.43;;
66485;SDS011;53303;47.476;8.084;2023-02-10T05:27:54;12.48;;;5.53;;
66485;SDS011;53303;47.476;8.084;2023-02-10T05:30:21;11.98;;;6.00;;
66485;SDS011;53303;47.476;8.084;2023-02-10T05:32:49;13.43;;;5.68;;
66485;SDS011;53303;47.476;8.084;2023-02-10T05:35:17;11.68;;;6.10;;
66485;SDS011;53303;47.476;8.084;2023-02-10T05:37:44;9.88;;;5.97;;
66485;SDS011;53303;47.476;8.084;2023-02-10T05:40:10;12.02;;;5.57;;
66485;SDS011;53303;47.476;8.084;2023-02-10T05:42:37;12.77;;;6.18;;
66485;SDS011;53303;47.476;8.084;2023-02-10T05:45:05;9.55;;;5.57;;
66485;SDS011;53303;47.476;8.084;2023-02-10T05:47:36;10.48;;;5.75;;
66485;SDS011;53303;47.476;8.084;2023-02-10T05:50:01;11.55;;;5.88;;
66485;SDS011;53303;47.476;8.084;2023-02-10T05:52:27;14.23;;;5.43;;
66485;SDS011;53303;47.476;8.084;2023-02-10T05:54:52;10.40;;;5.25;;
66485;SDS011;53303;47.476;8.084;2023-02-10T05:57:20;10.40;;;5.28;;
66485;SDS011;53303;47.476;8.084;2023-02-10T05:59:48;9.23;;;5.18;;
66485;SDS011;53303;47.476;8.084;2023-02-10T06:02:13;9.52;;;4.88;;
66485;SDS011;53303;47.476;8.084;2023-02-10T06:04:41;10.05;;;5.32;;
66485;SDS011;53303;47.476;8.084;2023-02-10T06:07:07;12.68;;;6.70;;
66485;SDS011;53303;47.476;8.084;2023-02-10T06:09:33;8.93;;;5.70;;
66485;SDS011;53303;47.476;8.084;2023-02-10T06:11:58;13.13;;;5.88;;
66485;SDS011;53303;47.476;8.084;2023-02-10T06:14:27;13.05;;;5.88;;
66485;SDS011;53303;47.476;8.084;2023-02-10T06:16:53;10.88;;;5.38;;
66485;SDS011;53303;47.476;8.084;2023-02-10T06:19:18;11.52;;;6.20;;
66485;SDS011;53303;47.476;8.084;2023-02-10T06:21:46;11.77;;;5.30;;
66485;SDS011;53303;47.476;8.084;2023-02-10T06:24:14;11.65;;;5.97;;
66485;SDS011;53303;47.476;8.084;2023-02-10T06:26:39;10.98;;;6.03;;
66485;SDS011;53303;47.476;8.084;2023-02-10T06:29:05;11.60;;;5.38;;
66485;SDS011;53303;47.476;8.084;2023-02-10T06:31:30;10.25;;;4.97;;
66485;SDS011;53303;47.476;8.084;2023-02-10T06:33:56;10.60;;;5.18;;
66485;SDS011;53303;47.476;8.084;2023-02-10T06:36:23;10.32;;;5.82;;
66485;SDS011;53303;47.476;8.084;2023-02-10T06:38:49;9.73;;;5.47;;
66485;SDS011;53303;47.476;8.084;2023-02-10T06:41:14;10.23;;;5.78;;
66485;SDS011;53303;47.476;8.084;2023-02-10T06:43:40;14.05;;;5.47;;
66485;SDS011;53303;47.476;8.084;2023-02-10T06:46:06;11.82;;;5.53;;
66485;SDS011;53303;47.476;8.084;2023-02-10T06:48:38;11.20;;;5.88;;
66485;SDS011;53303;47.476;8.084;2023-02-10T06:51:03;14.15;;;6.15;;
66485;SDS011;53303;47.476;8.084;2023-02-10T06:53:28;13.13;;;5.50;;
66485;SDS011;53303;47.476;8.084;2023-02-10T06:55:57;9.88;;;5.38;;
66485;SDS011;53303;47.476;8.084;2023-02-10T06:58:23;10.10;;;5.90;;
66485;SDS011;53303;47.476;8.084;2023-02-10T07:00:51;10.52;;;5.18;;
66485;SDS011;53303;47.476;8.084;2023-02-10T07:03:18;12.23;;;5.85;;
66485;SDS011;53303;47.476;8.084;2023-02-10T07:05:46;9.38;;;6.07;;
66485;SDS011;53303;47.476;8.084;2023-02-10T07:08:11;9.48;;;5.47;;
66485;SDS011;53303;47.476;8.084;2023-02-10T07:10:37;10.65;;;5.32;;
66485;SDS011;53303;47.476;8.084;2023-02-10T07:13:05;9.27;;;6.00;;
66485;SDS011;53303;47.476;8.084;2023-02-10T07:15:33;8.70;;;5.20;;
66485;SDS011;53303;47.476;8.084;2023-02-10T07:17:59;11.07;;;5.95;;
66485;SDS011;53303;47.476;8.084;2023-02-10T07:20:27;10.43;;;5.53;;
66485;SDS011;53303;47.476;8.084;2023-02-10T07:22:57;9.80;;;5.60;;
66485;SDS011;53303;47.476;8.084;2023-02-10T07:25:23;10.48;;;6.05;;
66485;SDS011;53303;47.476;8.084;2023-02-10T07:27:50;9.00;;;5.32;;
66485;SDS011;53303;47.476;8.084;2023-02-10T07:30:18;8.55;;;6.13;;
66485;SDS011;53303;47.476;8.084;2023-02-10T07:32:43;10.82;;;5.65;;
66485;SDS011;53303;47.476;8.084;2023-02-10T07:35:11;9.10;;;5.50;;
66485;SDS011;53303;47.476;8.084;2023-02-10T07:37:39;10.07;;;5.95;;
66485;SDS011;53303;47.476;8.084;2023-02-10T07:40:05;10.05;;;5.03;;
66485;SDS011;53303;47.476;8.084;2023-02-10T07:42:31;10.45;;;6.15;;
66485;SDS011;53303;47.476;8.084;2023-02-10T07:44:57;9.75;;;6.00;;
66485;SDS011;53303;47.476;8.084;2023-02-10T07:47:23;9.48;;;5.68;;
66485;SDS011;53303;47.476;8.084;2023-02-10T07:49:48;11.05;;;6.10;;
66485;SDS011;53303;47.476;8.084;2023-02-10T07:52:18;10.40;;;5.90;;
66485;SDS011;53303;47.476;8.084;2023-02-10T07:54:47;10.02;;;6.25;;
66485;SDS011;53303;47.476;8.084;2023-02-10T07:57:13;10.25;;;5.55;;
66485;SDS011;53303;47.476;8.084;2023-02-10T07:59:38;9.40;;;6.10;;
66485;SDS011;53303;47.476;8.084;2023-02-10T08:02:04;8.40;;;5.55;;
66485;SDS011;53303;47.476;8.084;2023-02-10T08:04:30;10.55;;;5.75;;
66485;SDS011;53303;47.476;8.084;2023-02-10T08:06:59;10.77;;;5.75;;
66485;SDS011;53303;47.476;8.084;2023-02-10T08:09:27;8.63;;;5.57;;
66485;SDS011;53303;47.476;8.084;2023-02-10T08:11:55;11.00;;;6.57;;
66485;SDS011;53303;47.476;8.084;2023-02-10T08:14:20;7.47;;;5.15;;
66485;SDS011;53303;47.476;8.084;2023-02-10T08:16:49;8.60;;;5.68;;
66485;SDS011;53303;47.476;8.084;2023-02-10T08:19:17;9.10;;;5.32;;
66485;SDS011;53303;47.476;8.084;2023-02-10T08:21:44;9.07;;;5.53;;
66485;SDS011;53303;47.476;8.084;2023-02-10T08:24:12;9.45;;;5.75;;
66485;SDS011;53303;47.476;8.084;2023-02-10T08:26:40;9.27;;;5.45;;
66485;SDS011;53303;47.476;8.084;2023-02-10T08:29:06;8.02;;;5.40;;
66485;SDS011;53303;47.476;8.084;2023-02-10T08:31:34;9.80;;;6.47;;
66485;SDS011;53303;47.476;8.084;2023-02-10T08:34:02;10.77;;;5.43;;
66485;SDS011;53303;47.476;8.084;2023-02-10T08:36:28;9.43;;;6.20;;
66485;SDS011;53303;47.476;8.084;2023-02-10T08:38:53;8.52;;;5.50;;
66485;SDS011;53303;47.476;8.084;2023-02-10T08:41:19;9.40;;;6.30;;
66485;SDS011;53303;47.476;8.084;2023-02-10T08:43:46;8.55;;;5.95;;
66485;SDS011;53303;47.476;8.084;2023-02-10T08:46:17;9.63;;;5.45;;
66485;SDS011;53303;47.476;8.084;2023-02-10T08:48:42;8.10;;;6.13;;
66485;SDS011;53303;47.476;8.084;2023-02-10T08:51:12;8.45;;;5.43;;
66485;SDS011;53303;47.476;8.084;2023-02-10T08:53:39;9.95;;;6.07;;
66485;SDS011;53303;47.476;8.084;2023-02-10T08:56:08;9.73;;;5.72;;
66485;SDS011;53303;47.476;8.084;2023-02-10T08:58:38;8.52;;;5.35;;
66485;SDS011;53303;47.476;8.084;2023-02-10T09:01:09;9.18;;;6.13;;
66485;SDS011;53303;47.476;8.084;2023-02-10T09:03:36;9.32;;;5.70;;
66485;SDS011;53303;47.476;8.084;2023-02-10T09:06:04;8.43;;;5.60;;
66485;SDS011;53303;47.476;8.084;2023-02-10T09:08:30;10.00;;;5.53;;
66485;SDS011;53303;47.476;8.084;2023-02-10T09:10:58;8.65;;;5.68;;
66485;SDS011;53303;47.476;8.084;2023-02-10T09:13:23;9.18;;;5.90;;
66485;SDS011;53303;47.476;8.084;2023-02-10T09:15:49;8.23;;;5.68;;
66485;SDS011;53303;47.476;8.084;2023-02-10T09:18:16;9.95;;;5.85;;
66485;SDS011;53303;47.476;8.084;2023-02-10T09:20:46;8.35;;;5.50;;
66485;SDS011;53303;47.476;8.084;2023-02-10T09:23:11;9.25;;;6.28;;
66485;SDS011;53303;47.476;8.084;2023-02-10T09:25:37;9.50;;;5.50;;
66485;SDS011;53303;47.476;8.084;2023-02-10T09:28:02;9.05;;;5.57;;
66485;SDS011;53303;47.476;8.084;2023-02-10T09:30:30;8.75;;;5.60;;
66485;SDS011;53303;47.476;8.084;2023-02-10T09:32:55;8.05;;;5.70;;
66485;SDS011;53303;47.476;8.084;2023-02-10T09:35:23;10.00;;;5.80;;
66485;SDS011;53303;47.476;8.084;2023-02-10T09:37:54;9.50;;;5.85;;
66485;SDS011;53303;47.476;8.084;2023-02-10T09:40:24;8.85;;;6.53;;
66485;SDS011;53303;47.476;8.084;2023-02-10T09:45:24;9.13;;;6.60;;
66485;SDS011;53303;47.476;8.084;2023-02-10T09:47:51;9.48;;;5.57;;
66485;SDS011;53303;47.476;8.084;2023-02-10T09:53:13;9.70;;;5.85;;
66485;SDS011;53303;47.476;8.084;2023-02-10T09:55:54;8.52;;;6.07;;
66485;SDS011;53303;47.476;8.084;2023-02-10T10:03:56;9.05;;;6.20;;
66485;SDS011;53303;47.476;8.084;2023-02-10T10:06:31;10.48;;;6.53;;
66485;SDS011;53303;47.476;8.084;2023-02-10T10:14:00;10.27;;;6.77;;
66485;SDS011;53303;47.476;8.084;2023-02-10T10:30:54;8.75;;;5.63;;
66485;SDS011;53303;47.476;8.084;2023-02-10T10:35:51;8.77;;;5.50;;
66485;SDS011;53303;47.476;8.084;2023-02-10T10:38:20;9.48;;;6.38;;
66485;SDS011;53303;47.476;8.084;2023-02-10T10:40:49;9.73;;;5.82;;
66485;SDS011;53303;47.476;8.084;2023-02-10T10:43:24;10.82;;;6.80;;
66485;SDS011;53303;47.476;8.084;2023-02-10T10:45:58;9.25;;;5.95;;
66485;SDS011;53303;47.476;8.084;2023-02-10T10:48:29;9.75;;;6.18;;
66485;SDS011;53303;47.476;8.084;2023-02-10T10:51:00;9.02;;;6.10;;
66485;SDS011;53303;47.476;8.084;2023-02-10T10:56:04;8.50;;;5.93;;
66485;SDS011;53303;47.476;8.084;2023-02-10T10:58:37;8.98;;;5.70;;
66485;SDS011;53303;47.476;8.084;2023-02-10T11:01:07;9.10;;;5.97;;
66485;SDS011;53303;47.476;8.084;2023-02-10T11:03:35;10.63;;;6.50;;
66485;SDS011;53303;47.476;8.084;2023-02-10T11:11:30;10.13;;;6.78;;
66485;SDS011;53303;47.476;8.084;2023-02-10T11:13:58;9.70;;;5.70;;
66485;SDS011;53303;47.476;8.084;2023-02-10T11:16:23;8.63;;;5.88;;
66485;SDS011;53303;47.476;8.084;2023-02-10T11:21:16;9.55;;;6.50;;
66485;SDS011;53303;47.476;8.084;2023-02-10T11:26:17;9.23;;;6.25;;
66485;SDS011;53303;47.476;8.084;2023-02-10T11:28:47;8.63;;;5.82;;
66485;SDS011;53303;47.476;8.084;2023-02-10T11:31:35;9.00;;;5.97;;
66485;SDS011;53303;47.476;8.084;2023-02-10T11:34:24;10.25;;;6.07;;
66485;SDS011;53303;47.476;8.084;2023-02-10T11:36:49;9.63;;;5.93;;
66485;SDS011;53303;47.476;8.084;2023-02-10T11:41:47;11.07;;;6.20;;
66485;SDS011;53303;47.476;8.084;2023-02-10T11:44:22;9.43;;;6.25;;
66485;SDS011;53303;47.476;8.084;2023-02-10T11:46:58;8.68;;;5.75;;
66485;SDS011;53303;47.476;8.084;2023-02-10T11:52:00;9.98;;;6.30;;
66485;SDS011;53303;47.476;8.084;2023-02-10T11:54:28;8.10;;;6.00;;
66485;SDS011;53303;47.476;8.084;2023-02-10T12:11:15;10.65;;;6.00;;
66485;SDS011;53303;47.476;8.084;2023-02-10T12:24:56;8.88;;;5.57;;
66485;SDS011;53303;47.476;8.084;2023-02-10T12:41:16;8.43;;;5.07;;
66485;SDS011;53303;47.476;8.084;2023-02-10T12:52:07;8.63;;;6.90;;
66485;SDS011;53303;47.476;8.084;2023-02-10T12:57:44;9.07;;;5.70;;
66485;SDS011;53303;47.476;8.084;2023-02-10T13:03:32;8.70;;;5.70;;
66485;SDS011;53303;47.476;8.084;2023-02-10T13:05:51;10.98;;;6.32;;
66485;SDS011;53303;47.476;8.084;2023-02-10T13:08:26;10.02;;;6.53;;
66485;SDS011;53303;47.476;8.084;2023-02-10T13:11:01;9.00;;;6.35;;
66485;SDS011;53303;47.476;8.084;2023-02-10T13:18:58;9.82;;;5.70;;
66485;SDS011;53303;47.476;8.084;2023-02-10T13:21:43;8.32;;;5.70;;
66485;SDS011;53303;47.476;8.084;2023-02-10T13:35:31;9.50;;;6.78;;
66485;SDS011;53303;47.476;8.084;2023-02-10T13:37:58;9.18;;;6.32;;
66485;SDS011;53303;47.476;8.084;2023-02-10T13:40:44;9.18;;;5.72;;
66485;SDS011;53303;47.476;8.084;2023-02-10T13:43:23;8.50;;;5.60;;
66485;SDS011;53303;47.476;8.084;2023-02-10T13:45:52;8.63;;;5.47;;
66485;SDS011;53303;47.476;8.084;2023-02-10T13:48:24;8.63;;;5.93;;
66485;SDS011;53303;47.476;8.084;2023-02-10T13:50:59;9.10;;;6.18;;
66485;SDS011;53303;47.476;8.084;2023-02-10T13:58:47;8.07;;;5.55;;
66485;SDS011;53303;47.476;8.084;2023-02-10T14:04:04;9.07;;;6.40;;
66485;SDS011;53303;47.476;8.084;2023-02-10T14:06:51;8.10;;;6.30;;
66485;SDS011;53303;47.476;8.084;2023-02-10T14:11:56;9.27;;;5.88;;
66485;SDS011;53303;47.476;8.084;2023-02-10T14:14:36;8.77;;;6.25;;
66485;SDS011;53303;47.476;8.084;2023-02-10T14:19:40;9.02;;;6.70;;
66485;SDS011;53303;47.476;8.084;2023-02-10T14:22:06;10.75;;;6.55;;
66485;SDS011;53303;47.476;8.084;2023-02-10T14:24:45;8.35;;;5.88;;
66485;SDS011;53303;47.476;8.084;2023-02-10T14:27:12;11.30;;;6.65;;
66485;SDS011;53303;47.476;8.084;2023-02-10T14:29:50;11.40;;;5.82;;
66485;SDS011;53303;47.476;8.084;2023-02-10T14:32:18;9.88;;;5.70;;
66485;SDS011;53303;47.476;8.084;2023-02-10T14:34:52;9.82;;;5.70;;
66485;SDS011;53303;47.476;8.084;2023-02-10T14:37:20;11.45;;;7.00;;
66485;SDS011;53303;47.476;8.084;2023-02-10T14:39:56;10.38;;;5.88;;
66485;SDS011;53303;47.476;8.084;2023-02-10T14:42:24;7.60;;;5.28;;
66485;SDS011;53303;47.476;8.084;2023-02-10T14:44:55;9.55;;;5.50;;
66485;SDS011;53303;47.476;8.084;2023-02-10T14:47:35;9.68;;;6.43;;
66485;SDS011;53303;47.476;8.084;2023-02-10T14:50:03;8.82;;;6.05;;
66485;SDS011;53303;47.476;8.084;2023-02-10T14:52:32;9.10;;;6.30;;
66485;SDS011;53303;47.476;8.084;2023-02-10T14:54:59;8.98;;;5.80;;
66485;SDS011;53303;47.476;8.084;2023-02-10T14:57:25;9.65;;;5.70;;
66485;SDS011;53303;47.476;8.084;2023-02-10T14:59:55;9.35;;;6.30;;
66485;SDS011;53303;47.476;8.084;2023-02-10T15:02:30;9.07;;;6.45;;
66485;SDS011;53303;47.476;8.084;2023-02-10T15:05:01;8.65;;;6.00;;
66485;SDS011;53303;47.476;8.084;2023-02-10T15:07:30;9.50;;;6.78;;
66485;SDS011;53303;47.476;8.084;2023-02-10T15:10:02;8.95;;;6.10;;
66485;SDS011;53303;47.476;8.084;2023-02-10T15:12:45;8.35;;;5.93;;
66485;SDS011;53303;47.476;8.084;2023-02-10T15:17:40;8.70;;;5.80;;
66485;SDS011;53303;47.476;8.084;2023-02-10T15:22:45;9.43;;;6.15;;
66485;SDS011;53303;47.476;8.084;2023-02-10T15:28:23;8.38;;;6.28;;
66485;SDS011;53303;47.476;8.084;2023-02-10T15:31:05;9.15;;;6.57;;
66485;SDS011;53303;47.476;8.084;2023-02-10T15:36:23;9.05;;;5.95;;
66485;SDS011;53303;47.476;8.084;2023-02-10T15:41:43;8.77;;;6.20;;
66485;SDS011;53303;47.476;8.084;2023-02-10T15:44:24;9.35;;;5.90;;
66485;SDS011;53303;47.476;8.084;2023-02-10T15:47:05;9.80;;;6.63;;
66485;SDS011;53303;47.476;8.084;2023-02-10T15:49:37;9.07;;;6.35;;
66485;SDS011;53303;47.476;8.084;2023-02-10T15:52:02;8.75;;;6.45;;
66485;SDS011;53303;47.476;8.084;2023-02-10T15:54:35;8.98;;;6.13;;
66485;SDS011;53303;47.476;8.084;2023-02-10T15:57:09;8.90;;;6.28;;
66485;SDS011;53303;47.476;8.084;2023-02-10T15:59:36;9.32;;;6.25;;
66485;SDS011;53303;47.476;8.084;2023-02-10T16:02:05;9.15;;;6.03;;
66485;SDS011;53303;47.476;8.084;2023-02-10T16:07:02;8.63;;;5.95;;
66485;SDS011;53303;47.476;8.084;2023-02-10T16:09:29;9.93;;;6.55;;
66485;SDS011;53303;47.476;8.084;2023-02-10T16:11:56;9.00;;;6.43;;
66485;SDS011;53303;47.476;8.084;2023-02-10T16:14:22;12.40;;;6.55;;
66485;SDS011;53303;47.476;8.084;2023-02-10T16:16:50;9.60;;;6.97;;
66485;SDS011;53303;47.476;8.084;2023-02-10T16:19:23;9.13;;;5.55;;
66485;SDS011;53303;47.476;8.084;2023-02-10T16:21:52;10.23;;;6.40;;
66485;SDS011;53303;47.476;8.084;2023-02-10T16:24:28;9.45;;;6.50;;
66485;SDS011;53303;47.476;8.084;2023-02-10T16:26:54;9.45;;;6.07;;
66485;SDS011;53303;47.476;8.084;2023-02-10T16:29:25;9.10;;;6.40;;
66485;SDS011;53303;47.476;8.084;2023-02-10T16:31:52;11.35;;;7.03;;
66485;SDS011;53303;47.476;8.084;2023-02-10T16:34:20;8.88;;;6.07;;
66485;SDS011;53303;47.476;8.084;2023-02-10T16:36:46;12.30;;;6.88;;
66485;SDS011;53303;47.476;8.084;2023-02-10T16:39:15;10.38;;;6.70;;
66485;SDS011;53303;47.476;8.084;2023-02-10T16:41:48;11.13;;;7.00;;
66485;SDS011;53303;47.476;8.084;2023-02-10T16:44:14;9.68;;;5.65;;
66485;SDS011;53303;47.476;8.084;2023-02-10T16:46:42;10.52;;;6.43;;
66485;SDS011;53303;47.476;8.084;2023-02-10T16:51:42;11.52;;;6.70;;
66485;SDS011;53303;47.476;8.084;2023-02-10T16:54:10;12.70;;;6.60;;
66485;SDS011;53303;47.476;8.084;2023-02-10T16:56:36;11.48;;;6.43;;
66485;SDS011;53303;47.476;8.084;2023-02-10T16:59:03;13.27;;;7.32;;
66485;SDS011;53303;47.476;8.084;2023-02-10T17:01:31;13.30;;;6.32;;
66485;SDS011;53303;47.476;8.084;2023-02-10T17:04:01;11.50;;;7.28;;
66485;SDS011;53303;47.476;8.084;2023-02-10T17:06:29;16.23;;;7.05;;
66485;SDS011;53303;47.476;8.084;2023-02-10T17:08:58;12.32;;;6.93;;
66485;SDS011;53303;47.476;8.084;2023-02-10T17:11:28;13.93;;;6.30;;
66485;SDS011;53303;47.476;8.084;2023-02-10T17:13:53;15.57;;;7.22;;
66485;SDS011;53303;47.476;8.084;2023-02-10T17:16:27;14.50;;;6.40;;
66485;SDS011;53303;47.476;8.084;2023-02-10T17:19:02;15.07;;;6.47;;
66485;SDS011;53303;47.476;8.084;2023-02-10T17:21:32;12.40;;;6.45;;
66485;SDS011;53303;47.476;8.084;2023-02-10T17:23:58;11.63;;;6.60;;
66485;SDS011;53303;47.476;8.084;2023-02-10T17:26:24;14.27;;;7.30;;
66485;SDS011;53303;47.476;8.084;2023-02-10T17:28:50;15.30;;;6.57;;
66485;SDS011;53303;47.476;8.084;2023-02-10T17:31:19;12.00;;;6.82;;
66485;SDS011;53303;47.476;8.084;2023-02-10T17:33:45;12.20;;;6.28;;
66485;SDS011;53303;47.476;8.084;2023-02-10T17:36:22;11.63;;;6.80;;
66485;SDS011;53303;47.476;8.084;2023-02-10T17:38:52;10.10;;;6.88;;
66485;SDS011;53303;47.476;8.084;2023-02-10T17:41:25;12.80;;;7.63;;
66485;SDS011;53303;47.476;8.084;2023-02-10T17:43:57;11.40;;;6.40;;
66485;SDS011;53303;47.476;8.084;2023-02-10T17:46:26;11.00;;;6.47;;
66485;SDS011;53303;47.476;8.084;2023-02-10T17:48:52;11.43;;;6.22;;
66485;SDS011;53303;47.476;8.084;2023-02-10T17:51:19;12.18;;;6.50;;
66485;SDS011;53303;47.476;8.084;2023-02-10T17:53:47;13.63;;;6.30;;
66485;SDS011;53303;47.476;8.084;2023-02-10T17:56:17;10.70;;;6.65;;
66485;SDS011;53303;47.476;8.084;2023-02-10T17:58:47;12.18;;;6.55;;